createdAt,value
2023-03-02T00:00:16.626Z,9.85
2023-03-02T00:03:18.399Z,9.90
2023-03-02T00:06:20.256Z,9.57
2023-03-02T00:09:21.939Z,10.05
2023-03-02T00:12:24.283Z,9.97
2023-03-02T00:15:26.792Z,10.05
2023-03-02T00:18:28.371Z,9.43
2023-03-02T00:21:30.210Z,9.67
2023-03-02T00:24:32.082Z,9.20
2023-03-02T00:27:33.748Z,9.75
2023-03-02T00:30:38.257Z,9.30
2023-03-02T00:33:41.023Z,9.68
2023-03-02T00:36:43.465Z,10.07
2023-03-02T00:39:45.462Z,9.85
2023-03-02T00:42:47.059Z,9.27
2023-03-02T00:45:48.780Z,9.90
2023-03-02T00:48:51.811Z,8.77
2023-03-02T00:51:53.439Z,10.43
2023-03-02T00:54:55.107Z,9.43
2023-03-02T00:57:57.128Z,10.32
2023-03-02T01:01:11.305Z,10.13
2023-03-02T01:04:18.647Z,8.77
2023-03-02T01:07:22.640Z,9.77
2023-03-02T01:10:24.389Z,10.00
2023-03-02T01:13:26.080Z,10.10
2023-03-02T01:16:27.944Z,9.23
2023-03-02T01:19:30.946Z,8.93
2023-03-02T01:22:32.656Z,10.20
2023-03-02T01:25:36.579Z,8.70
2023-03-02T01:28:40.349Z,8.90
2023-03-02T01:31:42.530Z,9.15
2023-03-02T01:34:44.419Z,9.25
2023-03-02T01:37:46.085Z,9.35
2023-03-02T01:40:47.884Z,9.00
2023-03-02T01:43:49.519Z,9.13
2023-03-02T01:46:51.299Z,9.20
2023-03-02T01:50:01.636Z,10.30
2023-03-02T01:53:11.670Z,10.10
2023-03-02T01:56:19.814Z,9.70
2023-03-02T01:59:23.820Z,8.77
2023-03-02T02:02:26.522Z,8.73
2023-03-02T02:05:28.252Z,9.30
2023-03-02T02:08:30.528Z,8.73
2023-03-02T02:11:32.203Z,8.70
2023-03-02T02:14:33.962Z,9.13
2023-03-02T02:17:35.806Z,9.05
2023-03-02T02:20:41.057Z,8.93
2023-03-02T02:24:01.904Z,8.53
2023-03-02T02:27:03.839Z,8.18
2023-03-02T02:30:07.966Z,9.05
2023-03-02T02:33:16.882Z,9.27
2023-03-02T02:36:25.614Z,8.23
2023-03-02T02:39:34.226Z,8.73
2023-03-02T02:42:43.442Z,8.77
2023-03-02T02:45:48.471Z,8.87
2023-03-02T02:48:50.324Z,8.23
2023-03-02T02:51:52.730Z,8.88
2023-03-02T02:54:57.886Z,8.47
2023-03-02T02:58:02.837Z,8.82
2023-03-02T03:01:07.094Z,9.10
2023-03-02T03:04:14.178Z,8.43
2023-03-02T03:07:25.552Z,8.23
2023-03-02T03:10:37.431Z,8.43
2023-03-02T03:13:41.077Z,8.65
2023-03-02T03:16:45.343Z,8.73
2023-03-02T03:19:47.702Z,8.73
2023-03-02T03:22:53.454Z,8.05
2023-03-02T03:25:55.857Z,8.27
2023-03-02T03:28:57.552Z,8.68
2023-03-02T03:32:01.345Z,8.30
2023-03-02T03:35:08.523Z,8.98
2023-03-02T03:38:12.128Z,8.68
2023-03-02T03:41:13.890Z,8.90
2023-03-02T03:44:15.716Z,8.40
2023-03-02T03:47:19.129Z,9.03
2023-03-02T03:50:21.519Z,8.50
2023-03-02T03:53:23.453Z,8.68
2023-03-02T03:56:30.740Z,8.27
2023-03-02T03:59:34.107Z,7.97
2023-03-02T04:02:38.498Z,8.73
2023-03-02T04:05:40.583Z,8.02
2023-03-02T04:08:43.661Z,8.02
2023-03-02T04:11:47.882Z,8.85
2023-03-02T04:14:50.007Z,8.57
2023-03-02T04:17:51.792Z,8.57
2023-03-02T04:20:55.170Z,8.70
2023-03-02T04:23:56.874Z,8.05
2023-03-02T04:26:58.896Z,8.93
2023-03-02T04:30:01.427Z,8.88
2023-03-02T04:33:04.949Z,7.97
2023-03-02T04:36:10.160Z,8.13
2023-03-02T04:39:14.793Z,8.80
2023-03-02T04:42:20.946Z,8.60
2023-03-02T04:45:22.596Z,8.52
2023-03-02T04:48:24.676Z,8.87
2023-03-02T04:51:30.312Z,9.02
2023-03-02T04:54:32.205Z,8.38
2023-03-02T04:57:33.853Z,8.07
2023-03-02T05:00:36.100Z,8.25
2023-03-02T05:03:37.888Z,8.75
2023-03-02T05:06:41.015Z,9.57
2023-03-02T05:09:42.680Z,9.02
2023-03-02T05:13:02.601Z,7.93
2023-03-02T05:16:04.640Z,8.57
2023-03-02T05:19:09.306Z,8.87
2023-03-02T05:22:11.528Z,8.70
2023-03-02T05:25:14.534Z,8.52
2023-03-02T05:28:18.991Z,8.77
2023-03-02T05:31:41.231Z,8.23
2023-03-02T05:34:43.404Z,8.55
2023-03-02T05:37:45.586Z,8.07
2023-03-02T05:40:48.565Z,8.57
2023-03-02T05:43:50.701Z,8.68
2023-03-02T05:46:52.827Z,8.85
2023-03-02T05:49:54.639Z,8.33
2023-03-02T05:52:56.487Z,8.82
2023-03-02T05:55:58.239Z,9.18
2023-03-02T05:59:00.266Z,9.20
2023-03-02T06:02:03.191Z,8.80
2023-03-02T06:05:09.310Z,8.40
2023-03-02T06:08:12.138Z,8.38
2023-03-02T06:11:16.116Z,9.27
2023-03-02T06:14:19.230Z,9.50
2023-03-02T06:17:20.934Z,8.52
2023-03-02T06:20:22.797Z,8.97
2023-03-02T06:23:25.142Z,9.10
2023-03-02T06:26:26.754Z,8.88
2023-03-02T06:29:28.322Z,9.43
2023-03-02T06:32:34.226Z,8.73
2023-03-02T06:35:36.063Z,9.77
2023-03-02T06:38:40.561Z,10.05
2023-03-02T06:41:44.923Z,8.93
2023-03-02T06:44:48.568Z,9.07
2023-03-02T06:47:50.167Z,9.98
2023-03-02T06:50:51.776Z,9.27
2023-03-02T06:53:53.675Z,10.23
2023-03-02T06:56:57.798Z,10.20
2023-03-02T07:00:01.405Z,9.70
2023-03-02T07:03:03.912Z,9.73
2023-03-02T07:06:06.272Z,9.18
2023-03-02T07:09:08.628Z,10.00
2023-03-02T07:12:11.568Z,10.13
2023-03-02T07:15:16.243Z,11.43
2023-03-02T07:18:18.989Z,12.52
2023-03-02T07:21:23.368Z,9.30
2023-03-02T07:24:25.623Z,9.77
2023-03-02T07:27:27.706Z,9.85
2023-03-02T07:30:29.828Z,9.90
2023-03-02T07:33:32.162Z,9.50
2023-03-02T07:36:34.248Z,9.80
2023-03-02T07:39:35.866Z,9.30
2023-03-02T07:42:38.701Z,9.60
2023-03-02T07:45:43.933Z,9.97
2023-03-02T07:48:45.556Z,9.05
2023-03-02T07:51:49.161Z,9.13
2023-03-02T07:54:50.970Z,9.25
2023-03-02T07:57:53.183Z,9.38
2023-03-02T08:00:54.787Z,9.50
2023-03-02T08:03:56.882Z,10.18
2023-03-02T08:06:59.035Z,9.45
2023-03-02T08:10:01.372Z,9.77
2023-03-02T08:13:03.743Z,9.20
2023-03-02T08:16:08.740Z,9.45
2023-03-02T08:19:10.795Z,9.98
2023-03-02T08:22:13.070Z,9.53
2023-03-02T08:25:17.246Z,9.73
2023-03-02T08:28:20.141Z,9.60
2023-03-02T08:31:22.330Z,9.00
2023-03-02T08:34:26.343Z,10.15
2023-03-02T08:37:28.644Z,9.45
2023-03-02T08:40:30.245Z,9.40
2023-03-02T08:43:32.386Z,9.52
2023-03-02T08:46:34.592Z,9.98
2023-03-02T08:49:37.943Z,9.10
2023-03-02T08:52:40.213Z,9.13
2023-03-02T08:55:41.831Z,8.95
2023-03-02T08:58:46.388Z,9.30
2023-03-02T09:01:48.213Z,9.57
2023-03-02T09:04:50.394Z,9.32
2023-03-02T09:07:52.466Z,9.80
2023-03-02T09:10:54.520Z,8.85
2023-03-02T09:13:56.331Z,10.27
2023-03-02T09:16:59.045Z,9.52
2023-03-02T09:20:01.250Z,9.48
2023-03-02T09:23:02.842Z,9.40
2023-03-02T09:26:06.132Z,9.50
2023-03-02T09:29:08.416Z,9.65
2023-03-02T09:32:11.791Z,9.67
2023-03-02T09:35:15.588Z,9.38
2023-03-02T09:38:18.714Z,10.55
2023-03-02T09:42:07.891Z,9.70
2023-03-02T09:45:22.238Z,9.73
2023-03-02T09:48:44.290Z,9.80
2023-03-02T09:51:48.663Z,9.27
2023-03-02T09:54:50.838Z,10.27
2023-03-02T09:57:54.909Z,9.30
2023-03-02T10:00:59.198Z,9.65
2023-03-02T10:04:13.559Z,9.30
2023-03-02T10:07:35.673Z,9.68
2023-03-02T10:10:54.755Z,10.05
2023-03-02T10:14:33.793Z,9.30
2023-03-02T10:18:01.454Z,9.02
2023-03-02T10:21:05.725Z,8.45
2023-03-02T10:24:41.308Z,8.48
2023-03-02T10:27:52.372Z,8.40
2023-03-02T10:31:08.263Z,8.68
2023-03-02T10:34:14.919Z,9.15
2023-03-02T10:37:28.481Z,8.33
2023-03-02T10:40:49.769Z,8.20
2023-03-02T10:43:57.559Z,8.20
2023-03-02T10:46:59.592Z,8.68
2023-03-02T10:50:01.247Z,8.02
2023-03-02T10:53:06.738Z,8.00
2023-03-02T10:56:22.380Z,8.07
2023-03-02T10:59:45.852Z,8.80
2023-03-02T11:03:02.591Z,8.30
2023-03-02T11:06:21.455Z,7.75
2023-03-02T11:09:23.497Z,8.43
2023-03-02T11:12:26.119Z,8.10
2023-03-02T11:15:46.030Z,8.27
2023-03-02T11:19:10.369Z,8.35
2023-03-02T11:22:44.065Z,7.72
2023-03-02T11:25:57.336Z,8.60
2023-03-02T11:29:04.608Z,8.50
2023-03-02T11:32:20.296Z,7.27
2023-03-02T11:35:45.357Z,7.30
2023-03-02T11:38:51.314Z,7.75
2023-03-02T11:41:54.650Z,7.60
2023-03-02T11:45:18.870Z,8.18
2023-03-02T11:48:33.443Z,7.80
2023-03-02T11:51:50.020Z,8.30
2023-03-02T11:55:15.423Z,7.75
2023-03-02T11:58:21.181Z,7.97
2023-03-02T12:01:26.843Z,7.68
2023-03-02T12:04:32.577Z,7.50
2023-03-02T12:07:34.343Z,7.60
2023-03-02T12:10:42.601Z,7.53
2023-03-02T12:14:04.091Z,7.80
2023-03-02T12:17:26.363Z,8.23
2023-03-02T12:20:30.878Z,7.68
2023-03-02T12:24:04.007Z,7.80
2023-03-02T12:27:21.399Z,7.32
2023-03-02T12:30:28.681Z,7.82
2023-03-02T12:33:30.444Z,7.82
2023-03-02T12:36:41.441Z,8.20
2023-03-02T12:40:03.105Z,8.05
2023-03-02T12:43:20.660Z,8.13
2023-03-02T12:46:34.049Z,7.33
2023-03-02T12:49:58.628Z,7.75
2023-03-02T12:53:02.816Z,7.68
2023-03-02T12:56:04.825Z,7.25
2023-03-02T12:59:06.775Z,7.88
2023-03-02T13:02:21.739Z,7.78
2023-03-02T13:05:35.464Z,8.23
2023-03-02T13:08:37.694Z,7.90
2023-03-02T13:11:39.975Z,7.85
2023-03-02T13:14:46.177Z,7.53
2023-03-02T13:18:00.533Z,7.57
2023-03-02T13:21:04.805Z,7.25
2023-03-02T13:24:33.715Z,7.70
2023-03-02T13:27:35.460Z,8.02
2023-03-02T13:30:43.566Z,8.02
2023-03-02T13:33:47.430Z,7.78
2023-03-02T13:36:52.164Z,7.80
2023-03-02T13:39:59.764Z,10.33
2023-03-02T13:43:01.483Z,12.68
2023-03-02T13:46:16.055Z,12.88
2023-03-02T13:49:35.760Z,12.73
2023-03-02T13:52:37.450Z,13.15
2023-03-02T13:55:40.124Z,13.27
2023-03-02T13:58:41.847Z,13.20
2023-03-02T14:01:47.690Z,12.98
2023-03-02T14:04:49.474Z,12.02
2023-03-02T14:07:51.686Z,13.57
2023-03-02T14:10:59.637Z,12.67
2023-03-02T14:14:03.242Z,13.75
2023-03-02T14:17:16.564Z,13.40
2023-03-02T14:20:22.924Z,13.20
2023-03-02T14:23:26.316Z,13.88
2023-03-02T14:26:38.003Z,14.65
2023-03-02T14:29:39.665Z,15.45
2023-03-02T14:32:41.316Z,14.05
2023-03-02T14:35:44.097Z,13.88
2023-03-02T14:38:48.042Z,12.73
2023-03-02T14:41:54.486Z,12.50
2023-03-02T14:44:56.500Z,13.52
2023-03-02T14:47:58.089Z,14.00
2023-03-02T14:51:01.243Z,12.83
2023-03-02T14:54:07.444Z,13.18
2023-03-02T14:57:28.040Z,13.95
2023-03-02T15:00:31.608Z,13.70
2023-03-02T15:03:33.330Z,14.40
2023-03-02T15:06:38.661Z,15.77
2023-03-02T15:09:40.316Z,14.32
2023-03-02T15:12:41.994Z,13.80
2023-03-02T15:15:44.715Z,14.85
2023-03-02T15:18:49.903Z,14.55
2023-03-02T15:21:52.958Z,14.97
2023-03-02T15:24:55.575Z,14.38
2023-03-02T15:27:57.950Z,15.45
2023-03-02T15:31:10.083Z,14.13
2023-03-02T15:34:12.610Z,14.55
2023-03-02T15:37:14.852Z,15.25
2023-03-02T15:40:19.031Z,15.45
2023-03-02T15:43:20.996Z,15.27
2023-03-02T15:46:23.902Z,15.52
2023-03-02T15:49:28.564Z,15.75
2023-03-02T15:52:31.440Z,15.10
2023-03-02T15:55:33.169Z,16.23
2023-03-02T15:58:35.841Z,16.35
2023-03-02T16:01:37.496Z,15.48
2023-03-02T16:04:39.256Z,15.82
2023-03-02T16:07:41.128Z,16.15
2023-03-02T16:10:42.996Z,16.13
2023-03-02T16:13:44.612Z,14.80
2023-03-02T16:16:46.410Z,15.90
2023-03-02T16:19:48.547Z,15.55
2023-03-02T16:22:51.792Z,15.80
2023-03-02T16:25:56.231Z,15.30
2023-03-02T16:29:00.348Z,15.63
2023-03-02T16:32:02.224Z,15.50
2023-03-02T16:35:04.284Z,15.35
2023-03-02T16:38:06.444Z,15.70
2023-03-02T16:41:16.793Z,15.23
2023-03-02T16:44:19.316Z,16.23
2023-03-02T16:47:22.489Z,16.42
2023-03-02T16:50:25.056Z,16.00
2023-03-02T16:53:28.136Z,15.43
2023-03-02T16:56:30.251Z,15.25
2023-03-02T16:59:33.092Z,16.45
2023-03-02T17:02:35.160Z,17.92
2023-03-02T17:05:37.805Z,23.50
2023-03-02T17:08:39.605Z,19.77
2023-03-02T17:11:41.229Z,17.20
2023-03-02T17:14:42.836Z,17.50
2023-03-02T17:17:44.434Z,17.83
2023-03-02T17:20:46.457Z,17.75
2023-03-02T17:23:50.893Z,18.63
2023-03-02T17:26:56.564Z,18.42
2023-03-02T17:29:59.337Z,17.92
2023-03-02T17:33:01.644Z,16.92
2023-03-02T17:36:07.409Z,16.02
2023-03-02T17:39:09.344Z,19.05
2023-03-02T17:42:11.077Z,18.85
2023-03-02T17:45:27.273Z,16.77
2023-03-02T17:48:28.850Z,16.75
2023-03-02T17:51:30.608Z,15.77
2023-03-02T17:54:32.759Z,16.00
2023-03-02T17:57:34.519Z,15.73
2023-03-02T18:00:36.317Z,15.80
2023-03-02T18:03:38.913Z,15.85
2023-03-02T18:06:40.846Z,17.70
2023-03-02T18:09:42.847Z,16.50
2023-03-02T18:12:44.397Z,16.20
2023-03-02T18:15:46.055Z,17.43
2023-03-02T18:18:48.484Z,16.20
2023-03-02T18:21:50.094Z,15.82
2023-03-02T18:24:53.033Z,17.20
2023-03-02T18:27:55.214Z,18.13
2023-03-02T18:30:58.537Z,17.42
2023-03-02T18:34:02.514Z,16.38
2023-03-02T18:37:05.403Z,15.73
2023-03-02T18:40:07.952Z,17.33
2023-03-02T18:43:09.636Z,18.08
2023-03-02T18:46:20.878Z,18.07
2023-03-02T18:49:24.084Z,17.60
2023-03-02T18:52:26.500Z,17.00
2023-03-02T18:55:28.191Z,17.50
2023-03-02T18:58:34.053Z,17.60
2023-03-02T19:01:35.743Z,17.40
2023-03-02T19:04:37.672Z,17.15
2023-03-02T19:07:39.506Z,15.73
2023-03-02T19:10:42.357Z,16.70
2023-03-02T19:13:44.064Z,15.93
2023-03-02T19:16:46.328Z,16.33
2023-03-02T19:19:47.986Z,16.83
2023-03-02T19:22:49.791Z,16.83
2023-03-02T19:25:53.900Z,17.57
2023-03-02T19:28:55.630Z,17.40
2023-03-02T19:31:58.321Z,18.63
2023-03-02T19:35:04.169Z,18.27
2023-03-02T19:38:07.280Z,17.83
2023-03-02T19:41:12.631Z,18.85
2023-03-02T19:44:14.329Z,19.65
2023-03-02T19:47:16.066Z,18.00
2023-03-02T19:50:18.906Z,18.17
2023-03-02T19:53:22.792Z,17.58
2023-03-02T19:56:33.100Z,19.03
2023-03-02T19:59:36.592Z,19.58
2023-03-02T20:02:40.749Z,19.25
2023-03-02T20:05:42.435Z,18.27
2023-03-02T20:08:44.480Z,19.38
2023-03-02T20:11:47.574Z,17.42
2023-03-02T20:14:53.714Z,17.50
2023-03-02T20:17:58.471Z,17.90
2023-03-02T20:21:02.156Z,18.17
2023-03-02T20:24:05.036Z,17.52
2023-03-02T20:27:07.330Z,16.80
2023-03-02T20:30:13.764Z,19.02
2023-03-02T20:33:16.273Z,20.60
2023-03-02T20:36:30.527Z,18.52
2023-03-02T20:39:35.637Z,19.98
2023-03-02T20:42:37.552Z,19.92
2023-03-02T20:45:39.893Z,19.17
2023-03-02T20:48:41.540Z,18.87
2023-03-02T20:51:49.422Z,20.52
2023-03-02T20:54:53.807Z,20.48
2023-03-02T20:58:10.671Z,20.20
2023-03-02T21:01:17.424Z,19.35
2023-03-02T21:04:20.791Z,20.40
2023-03-02T21:07:24.217Z,20.15
2023-03-02T21:10:32.823Z,18.42
2023-03-02T21:13:34.471Z,18.98
2023-03-02T21:16:38.905Z,19.17
2023-03-02T21:19:40.521Z,17.83
2023-03-02T21:22:42.437Z,17.42
2023-03-02T21:25:44.835Z,18.30
2023-03-02T21:28:46.556Z,21.67
2023-03-02T21:31:48.505Z,23.65
2023-03-02T21:34:52.609Z,22.85
2023-03-02T21:37:58.388Z,22.58
2023-03-02T21:41:01.161Z,20.63
2023-03-02T21:44:05.513Z,18.83
2023-03-02T21:47:07.245Z,19.05
2023-03-02T21:50:13.114Z,19.73
2023-03-02T21:53:14.761Z,18.90
2023-03-02T21:56:20.748Z,18.23
2023-03-02T21:59:26.084Z,18.47
2023-03-02T22:02:28.234Z,17.02
2023-03-02T22:05:32.139Z,17.17
2023-03-02T22:08:35.431Z,17.95
2023-03-02T22:11:38.411Z,17.33
2023-03-02T22:14:40.064Z,16.70
2023-03-02T22:17:42.380Z,16.27
2023-03-02T22:20:47.188Z,16.97
2023-03-02T22:23:48.986Z,15.95
2023-03-02T22:26:57.189Z,17.45
2023-03-02T22:30:02.782Z,18.63
2023-03-02T22:33:15.048Z,17.70
2023-03-02T22:36:23.937Z,19.25
2023-03-02T22:39:30.773Z,19.90
2023-03-02T22:42:34.051Z,17.20
2023-03-02T22:45:38.283Z,18.60
2023-03-02T22:48:41.790Z,17.92
2023-03-02T22:51:44.568Z,17.57
2023-03-02T22:54:46.466Z,17.35
2023-03-02T22:57:48.094Z,16.20
2023-03-02T23:00:49.793Z,16.87
2023-03-02T23:03:54.391Z,16.42
2023-03-02T23:07:01.135Z,16.92
2023-03-02T23:10:03.548Z,17.08
2023-03-02T23:13:05.173Z,18.33
2023-03-02T23:16:18.193Z,16.83
2023-03-02T23:19:20.444Z,16.98
2023-03-02T23:22:23.159Z,16.00
2023-03-02T23:25:26.068Z,16.40
2023-03-02T23:28:27.654Z,16.98
2023-03-02T23:31:31.317Z,16.83
2023-03-02T23:34:32.978Z,17.83
2023-03-02T23:37:34.634Z,15.93
2023-03-02T23:40:36.230Z,16.45
2023-03-02T23:43:38.143Z,16.48
2023-03-02T23:46:39.914Z,16.33
2023-03-02T23:49:41.484Z,16.35
2023-03-02T23:52:43.271Z,15.23
2023-03-02T23:55:48.974Z,17.70
2023-03-02T23:58:50.676Z,17.30
